createdAt,value
2018-04-14T00:01:27.366Z,87.07
2018-04-14T00:03:56.489Z,83.47
2018-04-14T00:06:25.600Z,84.60
2018-04-14T00:08:54.723Z,83.77
2018-04-14T00:11:23.833Z,84.20
2018-04-14T00:13:52.981Z,83.20
2018-04-14T00:16:22.105Z,86.57
2018-04-14T00:18:51.252Z,81.07
2018-04-14T00:21:20.357Z,79.57
2018-04-14T00:23:49.504Z,86.33
2018-04-14T00:26:18.620Z,80.80
2018-04-14T00:28:47.755Z,83.07
2018-04-14T00:31:16.860Z,83.17
2018-04-14T00:33:45.976Z,84.10
2018-04-14T00:36:15.104Z,86.67
2018-04-14T00:38:44.230Z,87.07
2018-04-14T00:41:13.497Z,86.90
2018-04-14T00:43:42.609Z,88.80
2018-04-14T00:46:11.747Z,89.20
2018-04-14T00:48:40.857Z,86.57
2018-04-14T00:51:10.004Z,90.93
2018-04-14T00:53:45.061Z,86.97
2018-04-14T00:56:14.167Z,86.40
2018-04-14T00:58:43.288Z,87.60
2018-04-14T01:01:12.412Z,87.40
2018-04-14T01:03:41.524Z,85.77
2018-04-14T01:06:10.644Z,87.90
2018-04-14T01:08:39.756Z,86.57
2018-04-14T01:11:08.876Z,88.53
2018-04-14T01:13:38.009Z,82.77
2018-04-14T01:16:07.145Z,82.30
2018-04-14T01:18:36.273Z,84.37
2018-04-14T01:21:05.416Z,83.80
2018-04-14T01:23:34.536Z,86.93
2018-04-14T01:26:03.640Z,83.83
2018-04-14T01:28:32.753Z,83.10
2018-04-14T01:31:01.897Z,88.50
2018-04-14T01:33:31.028Z,84.90
2018-04-14T01:36:00.144Z,87.53
2018-04-14T01:38:29.252Z,87.23
2018-04-14T01:40:58.381Z,87.50
2018-04-14T01:43:27.768Z,88.37
2018-04-14T01:45:57.130Z,86.70
2018-04-14T01:48:26.241Z,85.13
2018-04-14T01:50:55.356Z,88.10
2018-04-14T01:53:24.481Z,88.13
2018-04-14T01:55:53.617Z,88.23
2018-04-14T01:58:22.767Z,87.30
2018-04-14T02:00:51.880Z,92.33
2018-04-14T02:03:20.992Z,90.47
2018-04-14T02:05:50.139Z,91.93
2018-04-14T02:08:19.288Z,93.20
2018-04-14T02:10:48.437Z,89.73
2018-04-14T02:13:17.568Z,90.73
2018-04-14T02:15:46.685Z,94.07
2018-04-14T02:18:15.800Z,90.20
2018-04-14T02:20:44.950Z,90.70
2018-04-14T02:23:14.084Z,85.67
2018-04-14T02:25:43.208Z,85.97
2018-04-14T02:28:12.329Z,85.73
2018-04-14T02:30:41.448Z,87.90
2018-04-14T02:33:10.604Z,87.07
2018-04-14T02:35:39.749Z,85.47
2018-04-14T02:38:08.858Z,86.30
2018-04-14T02:40:37.992Z,87.03
2018-04-14T02:43:07.120Z,85.67
2018-04-14T02:45:36.244Z,85.00
2018-04-14T02:48:05.376Z,85.70
2018-04-14T02:50:34.490Z,84.70
2018-04-14T02:53:03.636Z,82.17
2018-04-14T02:55:32.744Z,89.83
2018-04-14T02:58:01.859Z,93.87
2018-04-14T03:00:30.984Z,88.00
2018-04-14T03:03:00.116Z,85.20
2018-04-14T03:05:29.224Z,84.40
2018-04-14T03:07:58.361Z,86.50
2018-04-14T03:10:27.472Z,86.93
2018-04-14T03:12:56.601Z,87.77
2018-04-14T03:15:25.742Z,84.13
2018-04-14T03:17:54.875Z,87.80
2018-04-14T03:20:24.061Z,85.47
2018-04-14T03:22:53.163Z,86.07
2018-04-14T03:25:22.293Z,85.10
2018-04-14T03:27:51.420Z,88.60
2018-04-14T03:30:20.548Z,86.03
2018-04-14T03:32:49.699Z,85.77
2018-04-14T03:35:18.831Z,89.80
2018-04-14T03:37:47.955Z,85.87
2018-04-14T03:40:17.085Z,89.80
2018-04-14T03:42:46.200Z,90.63
2018-04-14T03:45:15.314Z,88.57
2018-04-14T03:47:44.600Z,89.67
2018-04-14T03:50:13.741Z,90.07
2018-04-14T03:52:42.873Z,89.90
2018-04-14T03:55:12.004Z,91.20
2018-04-14T03:57:41.143Z,88.60
2018-04-14T04:00:10.327Z,88.50
2018-04-14T04:02:39.436Z,87.37
2018-04-14T04:05:08.545Z,89.07
2018-04-14T04:07:37.698Z,92.10
2018-04-14T04:10:06.829Z,90.93
2018-04-14T04:12:35.936Z,96.17
2018-04-14T04:15:05.057Z,96.40
2018-04-14T04:17:34.191Z,96.90
2018-04-14T04:20:09.264Z,95.77
2018-04-14T04:22:44.344Z,96.80
2018-04-14T04:25:19.376Z,97.60
2018-04-14T04:27:48.520Z,99.37
2018-04-14T04:30:17.652Z,96.13
2018-04-14T04:32:46.768Z,94.60
2018-04-14T04:35:15.883Z,97.97
2018-04-14T04:37:44.990Z,96.80
2018-04-14T04:40:14.109Z,98.00
2018-04-14T04:42:43.244Z,99.50
2018-04-14T04:45:12.368Z,101.47
2018-04-14T04:47:41.487Z,104.43
2018-04-14T04:50:10.757Z,99.47
2018-04-14T04:52:39.905Z,100.17
2018-04-14T04:55:09.044Z,101.13
2018-04-14T04:57:38.166Z,101.80
2018-04-14T05:00:07.276Z,97.57
2018-04-14T05:02:36.391Z,101.10
2018-04-14T05:05:05.508Z,100.80
2018-04-14T05:07:34.634Z,100.30
2018-04-14T05:10:03.748Z,103.33
2018-04-14T05:12:32.866Z,101.70
2018-04-14T05:15:01.989Z,104.00
2018-04-14T05:17:31.136Z,96.50
2018-04-14T05:20:00.240Z,101.50
2018-04-14T05:22:29.344Z,91.90
2018-04-14T05:24:58.480Z,94.20
2018-04-14T05:27:27.603Z,93.60
2018-04-14T05:29:56.747Z,91.60
2018-04-14T05:32:25.855Z,88.70
2018-04-14T05:34:55.032Z,86.80
2018-04-14T05:37:24.208Z,90.47
2018-04-14T05:39:53.323Z,90.10
2018-04-14T05:42:22.457Z,96.10
2018-04-14T05:44:51.576Z,87.93
2018-04-14T05:47:20.724Z,95.00
2018-04-14T05:49:49.860Z,90.43
2018-04-14T05:52:18.993Z,88.03
2018-04-14T05:54:48.104Z,87.33
2018-04-14T05:57:17.228Z,84.30
2018-04-14T05:59:46.344Z,82.90
2018-04-14T06:02:15.459Z,83.70
2018-04-14T06:04:44.596Z,84.60
2018-04-14T06:07:13.732Z,82.90
2018-04-14T06:09:42.844Z,84.37
2018-04-14T06:12:11.968Z,84.80
2018-04-14T06:14:41.112Z,82.20
2018-04-14T06:17:10.248Z,83.00
2018-04-14T06:19:40.069Z,85.63
2018-04-14T06:22:09.229Z,81.50
2018-04-14T06:24:38.340Z,82.90
2018-04-14T06:27:07.494Z,81.40
2018-04-14T06:29:36.598Z,84.13
2018-04-14T06:32:05.724Z,82.70
2018-04-14T06:34:34.865Z,81.00
2018-04-14T06:37:04.008Z,81.20
2018-04-14T06:39:33.171Z,82.07
2018-04-14T06:42:02.289Z,82.80
2018-04-14T06:44:31.443Z,84.60
2018-04-14T06:47:00.581Z,82.97
2018-04-14T06:49:29.724Z,82.80
2018-04-14T06:51:58.879Z,82.10
2018-04-14T06:54:28.004Z,84.27
2018-04-14T06:56:57.154Z,83.40
2018-04-14T06:59:26.278Z,89.37
2018-04-14T07:01:55.409Z,83.17
2018-04-14T07:04:24.565Z,81.17
2018-04-14T07:06:53.684Z,82.70
2018-04-14T07:09:22.800Z,82.90
2018-04-14T07:11:51.945Z,83.90
2018-04-14T07:14:21.095Z,84.60
2018-04-14T07:16:50.199Z,85.77
2018-04-14T07:19:19.347Z,82.30
2018-04-14T07:21:48.497Z,90.70
2018-04-14T07:24:18.490Z,82.80
2018-04-14T07:26:47.660Z,81.37
2018-04-14T07:29:16.803Z,81.77
2018-04-14T07:31:45.940Z,82.20
2018-04-14T07:34:15.057Z,80.70
2018-04-14T07:36:44.177Z,81.10
2018-04-14T07:39:13.296Z,80.80
2018-04-14T07:41:42.446Z,81.60
2018-04-14T07:44:11.548Z,82.30
2018-04-14T07:46:40.676Z,80.77
2018-04-14T07:49:09.795Z,80.87
2018-04-14T07:51:38.955Z,83.20
2018-04-14T07:54:08.039Z,81.20
2018-04-14T07:56:37.175Z,82.07
2018-04-14T07:59:06.328Z,80.87
2018-04-14T08:01:35.461Z,85.57
2018-04-14T08:04:04.609Z,82.50
2018-04-14T08:06:33.888Z,86.80
2018-04-14T08:09:03.269Z,81.83
2018-04-14T08:11:32.403Z,80.27
2018-04-14T08:14:01.537Z,80.90
2018-04-14T08:16:30.682Z,84.50
2018-04-14T08:18:59.807Z,81.17
2018-04-14T08:21:29.055Z,80.80
2018-04-14T08:23:58.217Z,79.47
2018-04-14T08:26:27.371Z,78.97
2018-04-14T08:28:56.565Z,79.93
2018-04-14T08:31:25.700Z,77.90
2018-04-14T08:33:54.853Z,76.90
2018-04-14T08:36:23.992Z,79.60
2018-04-14T08:38:53.108Z,75.87
2018-04-14T08:41:22.222Z,77.93
2018-04-14T08:43:51.355Z,73.57
2018-04-14T08:46:20.496Z,73.47
2018-04-14T08:48:49.635Z,73.80
2018-04-14T08:51:18.751Z,75.70
2018-04-14T08:53:47.895Z,74.87
2018-04-14T08:56:17.036Z,74.67
2018-04-14T08:58:46.176Z,76.00
2018-04-14T09:01:15.315Z,74.83
2018-04-14T09:03:44.432Z,75.30
2018-04-14T09:06:13.573Z,78.60
2018-04-14T09:08:42.746Z,74.27
2018-04-14T09:11:11.920Z,73.53
2018-04-14T09:13:41.053Z,72.17
2018-04-14T09:16:10.233Z,71.70
2018-04-14T09:18:39.364Z,73.17
2018-04-14T09:21:08.483Z,72.17
2018-04-14T09:23:37.622Z,71.30
2018-04-14T09:26:06.727Z,71.67
2018-04-14T09:28:35.860Z,72.63
2018-04-14T09:31:05.060Z,72.63
2018-04-14T09:33:34.191Z,72.63
2018-04-14T09:36:03.320Z,71.30
2018-04-14T09:38:32.436Z,70.90
2018-04-14T09:41:01.581Z,71.40
2018-04-14T09:43:30.724Z,72.47
2018-04-14T09:45:59.863Z,72.07
2018-04-14T09:48:28.980Z,72.10
2018-04-14T09:50:58.110Z,70.60
2018-04-14T09:53:27.244Z,69.93
2018-04-14T09:55:56.696Z,72.47
2018-04-14T09:58:25.869Z,69.60
2018-04-14T10:01:00.873Z,69.30
2018-04-14T10:03:30.029Z,69.77
2018-04-14T10:05:59.161Z,69.43
2018-04-14T10:08:28.305Z,70.40
2018-04-14T10:10:57.440Z,69.57
2018-04-14T10:13:26.552Z,70.13
2018-04-14T10:15:55.703Z,69.27
2018-04-14T10:18:24.849Z,70.90
2018-04-14T10:20:54.057Z,70.50
2018-04-14T10:23:23.196Z,71.17
2018-04-14T10:25:52.325Z,71.20
2018-04-14T10:28:21.433Z,70.47
2018-04-14T10:30:50.551Z,69.40
2018-04-14T10:33:19.688Z,73.10
2018-04-14T10:35:48.832Z,71.90
2018-04-14T10:38:17.935Z,69.30
2018-04-14T10:40:47.064Z,69.47
2018-04-14T10:43:16.186Z,69.13
2018-04-14T10:45:45.291Z,68.83
2018-04-14T10:48:14.427Z,68.70
2018-04-14T10:50:43.535Z,68.70
2018-04-14T10:53:12.682Z,68.77
2018-04-14T10:55:41.832Z,69.17
2018-04-14T10:58:10.940Z,68.57
2018-04-14T11:00:40.056Z,69.10
2018-04-14T11:03:09.196Z,69.10
2018-04-14T11:05:38.379Z,68.20
2018-04-14T11:08:07.577Z,68.23
2018-04-14T11:10:36.711Z,68.87
2018-04-14T11:13:05.856Z,70.10
2018-04-14T11:15:34.987Z,70.10
2018-04-14T11:18:04.094Z,68.50
2018-04-14T11:20:33.245Z,68.90
2018-04-14T11:23:02.315Z,69.07
2018-04-14T11:25:31.431Z,70.60
2018-04-14T11:28:00.548Z,68.67
2018-04-14T11:30:29.673Z,70.30
2018-04-14T11:32:58.809Z,68.70
2018-04-14T11:35:27.920Z,69.97
2018-04-14T11:37:57.060Z,71.17
2018-04-14T11:40:26.179Z,69.20
2018-04-14T11:42:55.283Z,69.50
2018-04-14T11:45:24.425Z,69.40
2018-04-14T11:47:53.544Z,68.87
2018-04-14T11:50:22.647Z,68.80
2018-04-14T11:52:51.765Z,69.67
2018-04-14T11:55:20.882Z,71.77
2018-04-14T11:57:49.988Z,70.20
2018-04-14T12:00:19.124Z,69.80
2018-04-14T12:02:48.240Z,69.07
2018-04-14T12:05:17.396Z,69.37
2018-04-14T12:07:46.527Z,68.10
2018-04-14T12:10:15.647Z,68.90
2018-04-14T12:12:44.785Z,67.40
2018-04-14T12:15:13.913Z,68.53
2018-04-14T12:17:43.192Z,69.30
2018-04-14T12:20:12.339Z,68.70
2018-04-14T12:22:41.447Z,68.37
2018-04-14T12:25:10.549Z,67.80
2018-04-14T12:27:39.719Z,67.60
2018-04-14T12:30:08.825Z,70.80
2018-04-14T12:32:37.950Z,69.63
2018-04-14T12:35:07.079Z,68.17
2018-04-14T12:37:36.215Z,67.97
2018-04-14T12:40:05.355Z,69.47
2018-04-14T12:42:34.508Z,68.20
2018-04-14T12:45:03.635Z,68.67
2018-04-14T12:47:32.749Z,68.80
2018-04-14T12:50:01.872Z,67.10
2018-04-14T12:52:31.012Z,68.20
2018-04-14T12:55:00.121Z,67.43
2018-04-14T12:57:29.247Z,67.70
2018-04-14T12:59:58.380Z,67.80
2018-04-14T13:02:27.517Z,67.97
2018-04-14T13:04:56.635Z,69.20
2018-04-14T13:07:25.773Z,68.27
2018-04-14T13:09:54.888Z,69.90
2018-04-14T13:12:24.030Z,67.90
2018-04-14T13:14:53.140Z,71.97
2018-04-14T13:17:22.298Z,68.80
2018-04-14T13:19:51.401Z,70.13
2018-04-14T13:22:20.539Z,67.30
2018-04-14T13:24:49.701Z,68.60
2018-04-14T13:27:18.812Z,70.57
2018-04-14T13:29:47.943Z,68.67
2018-04-14T13:32:17.133Z,68.27
2018-04-14T13:34:46.457Z,68.47
2018-04-14T13:37:15.624Z,68.40
2018-04-14T13:39:44.743Z,68.60
2018-04-14T13:42:13.879Z,68.33
2018-04-14T13:44:42.984Z,71.90
2018-04-14T13:47:12.127Z,70.70
2018-04-14T13:49:41.323Z,67.97
2018-04-14T13:52:10.507Z,68.10
2018-04-14T13:54:39.613Z,68.13
2018-04-14T13:57:08.743Z,69.33
2018-04-14T13:59:38.048Z,68.43
2018-04-14T14:02:07.152Z,68.70
2018-04-14T14:04:36.308Z,68.17
2018-04-14T14:07:05.412Z,69.37
2018-04-14T14:09:34.548Z,69.67
2018-04-14T14:12:03.692Z,69.77
2018-04-14T14:14:32.844Z,68.90
2018-04-14T14:17:01.988Z,69.20
2018-04-14T14:19:31.117Z,69.27
2018-04-14T14:22:00.256Z,70.67
2018-04-14T14:24:29.406Z,71.27
2018-04-14T14:26:58.516Z,70.27
2018-04-14T14:29:27.627Z,72.30
2018-04-14T14:31:56.766Z,72.30
2018-04-14T14:34:25.952Z,73.67
2018-04-14T14:36:55.105Z,73.30
2018-04-14T14:39:24.246Z,71.97
2018-04-14T14:41:53.368Z,72.30
2018-04-14T14:44:22.498Z,72.20
2018-04-14T14:46:51.599Z,72.10
2018-04-14T14:49:20.745Z,71.63
2018-04-14T14:51:49.873Z,70.33
2018-04-14T14:54:18.981Z,69.20
2018-04-14T14:56:48.206Z,70.07
2018-04-14T14:59:17.262Z,69.87
2018-04-14T15:01:46.656Z,69.30
2018-04-14T15:04:15.813Z,69.20
2018-04-14T15:06:44.961Z,71.13
2018-04-14T15:09:14.095Z,70.77
2018-04-14T15:11:43.220Z,71.17
2018-04-14T15:14:12.360Z,71.30
2018-04-14T15:16:41.491Z,69.17
2018-04-14T15:19:10.602Z,68.80
2018-04-14T15:21:39.737Z,69.07
2018-04-14T15:24:08.875Z,71.23
2018-04-14T15:26:38.007Z,71.33
2018-04-14T15:29:07.144Z,70.60
2018-04-14T15:31:36.254Z,70.30
2018-04-14T15:34:05.396Z,71.47
2018-04-14T15:36:34.527Z,72.27
2018-04-14T15:39:03.640Z,72.57
2018-04-14T15:41:32.760Z,70.83
2018-04-14T15:44:01.897Z,70.47
2018-04-14T15:46:31.065Z,70.70
2018-04-14T15:49:00.253Z,72.77
2018-04-14T15:51:29.361Z,73.27
2018-04-14T15:53:58.472Z,72.47
2018-04-14T15:56:27.584Z,72.47
2018-04-14T15:58:56.700Z,72.67
2018-04-14T16:01:25.840Z,73.50
2018-04-14T16:03:54.940Z,74.60
2018-04-14T16:06:24.080Z,71.57
2018-04-14T16:08:53.223Z,79.80
2018-04-14T16:11:22.340Z,70.90
2018-04-14T16:13:51.485Z,76.97
2018-04-14T16:16:20.628Z,72.13
2018-04-14T16:18:49.790Z,76.83
2018-04-14T16:21:18.912Z,72.60
2018-04-14T16:23:48.064Z,86.70
2018-04-14T16:26:17.175Z,73.43
2018-04-14T16:28:46.296Z,73.40
2018-04-14T16:31:15.443Z,76.57
2018-04-14T16:33:44.562Z,76.37
2018-04-14T16:36:13.682Z,73.30
2018-04-14T16:38:42.791Z,73.10
2018-04-14T16:41:11.974Z,78.13
2018-04-14T16:43:41.076Z,72.60
2018-04-14T16:46:10.197Z,76.40
2018-04-14T16:48:39.341Z,72.90
2018-04-14T16:51:08.492Z,76.30
2018-04-14T16:53:37.607Z,73.27
2018-04-14T16:56:06.744Z,74.53
2018-04-14T16:58:35.872Z,77.10
2018-04-14T17:01:04.988Z,73.70
2018-04-14T17:03:34.119Z,75.40
2018-04-14T17:06:03.266Z,73.67
2018-04-14T17:08:32.416Z,80.00
2018-04-14T17:11:01.586Z,74.50
2018-04-14T17:13:30.729Z,72.43
2018-04-14T17:15:59.837Z,73.10
2018-04-14T17:18:28.968Z,74.17
2018-04-14T17:20:58.114Z,75.33
2018-04-14T17:23:27.249Z,78.37
2018-04-14T17:25:56.379Z,78.77
2018-04-14T17:28:25.498Z,77.13
2018-04-14T17:30:54.629Z,81.30
2018-04-14T17:33:23.768Z,73.90
2018-04-14T17:35:52.895Z,74.53
2018-04-14T17:38:22.042Z,75.63
2018-04-14T17:40:51.159Z,74.47
2018-04-14T17:43:20.307Z,76.67
2018-04-14T17:45:49.445Z,74.17
2018-04-14T17:48:18.560Z,74.10
2018-04-14T17:50:47.676Z,73.03
2018-04-14T17:53:16.801Z,80.60
2018-04-14T17:55:45.908Z,74.97
2018-04-14T17:58:15.037Z,72.77
2018-04-14T18:00:44.153Z,75.37
2018-04-14T18:03:13.260Z,77.53
2018-04-14T18:05:42.397Z,74.70
2018-04-14T18:08:11.565Z,74.67
2018-04-14T18:10:40.680Z,74.30
2018-04-14T18:13:09.792Z,73.57
2018-04-14T18:15:38.937Z,75.47
2018-04-14T18:18:08.063Z,74.00
2018-04-14T18:20:37.189Z,76.03
2018-04-14T18:23:06.324Z,73.53
2018-04-14T18:25:35.447Z,73.90
2018-04-14T18:28:04.600Z,73.17
2018-04-14T18:30:33.738Z,73.70
2018-04-14T18:33:02.880Z,74.00
2018-04-14T18:35:32.006Z,74.47
2018-04-14T18:38:01.125Z,74.97
2018-04-14T18:40:30.252Z,75.00
2018-04-14T18:42:59.382Z,77.67
2018-04-14T18:45:28.514Z,75.00
2018-04-14T18:47:57.619Z,75.60
2018-04-14T18:50:26.736Z,78.00
2018-04-14T18:52:55.852Z,75.03
2018-04-14T18:55:25.006Z,75.37
2018-04-14T18:57:54.149Z,74.93
2018-04-14T19:00:23.293Z,75.97
2018-04-14T19:02:52.408Z,75.50
2018-04-14T19:05:21.519Z,78.23
2018-04-14T19:07:50.655Z,75.70
2018-04-14T19:10:19.854Z,76.67
2018-04-14T19:12:48.967Z,76.70
2018-04-14T19:15:18.101Z,79.97
2018-04-14T19:17:47.225Z,75.80
2018-04-14T19:20:16.369Z,75.10
2018-04-14T19:22:45.489Z,81.80
2018-04-14T19:25:14.627Z,78.57
2018-04-14T19:27:43.771Z,81.87
2018-04-14T19:30:12.891Z,85.30
2018-04-14T19:32:42.003Z,83.57
2018-04-14T19:35:11.121Z,80.10
2018-04-14T19:37:40.277Z,81.00
2018-04-14T19:40:09.425Z,82.20
2018-04-14T19:42:38.564Z,85.30
2018-04-14T19:45:07.684Z,81.20
2018-04-14T19:47:36.856Z,78.87
2018-04-14T19:50:05.991Z,79.47
2018-04-14T19:52:35.113Z,78.00
2018-04-14T19:55:04.225Z,81.43
2018-04-14T19:57:33.372Z,79.07
2018-04-14T20:00:02.486Z,92.63
2018-04-14T20:02:31.635Z,78.40
2018-04-14T20:05:00.766Z,79.90
2018-04-14T20:07:29.879Z,81.47
2018-04-14T20:09:59.024Z,78.17
2018-04-14T20:12:28.143Z,79.20
2018-04-14T20:14:57.243Z,92.07
2018-04-14T20:17:26.376Z,85.47
2018-04-14T20:19:55.579Z,85.87
2018-04-14T20:22:24.688Z,84.17
2018-04-14T20:24:53.816Z,83.57
2018-04-14T20:27:22.931Z,79.93
2018-04-14T20:29:52.048Z,78.97
2018-04-14T20:32:21.169Z,80.57
2018-04-14T20:34:50.285Z,82.40
2018-04-14T20:37:19.434Z,83.30
2018-04-14T20:39:48.565Z,82.53
2018-04-14T20:42:17.697Z,87.87
2018-04-14T20:44:46.812Z,104.13
2018-04-14T20:47:15.974Z,115.43
2018-04-14T20:49:45.116Z,87.50
2018-04-14T20:52:14.252Z,82.00
2018-04-14T20:54:43.365Z,84.50
2018-04-14T20:57:12.515Z,84.20
2018-04-14T20:59:41.655Z,83.67
2018-04-14T21:02:10.799Z,82.00
2018-04-14T21:04:39.949Z,80.00
2018-04-14T21:07:09.108Z,82.17
2018-04-14T21:09:38.209Z,83.80
2018-04-14T21:12:07.324Z,82.33
2018-04-14T21:14:36.472Z,81.07
2018-04-14T21:17:05.596Z,83.90
2018-04-14T21:19:34.720Z,81.70
2018-04-14T21:22:03.875Z,82.40
2018-04-14T21:24:33.010Z,82.37
2018-04-14T21:27:02.161Z,83.23
2018-04-14T21:29:31.274Z,79.30
2018-04-14T21:32:00.424Z,77.90
2018-04-14T21:34:29.535Z,78.20
2018-04-14T21:36:58.688Z,82.17
2018-04-14T21:39:27.802Z,84.07
2018-04-14T21:41:56.937Z,81.53
2018-04-14T21:44:26.061Z,80.37
2018-04-14T21:46:55.176Z,82.63
2018-04-14T21:49:24.303Z,79.87
2018-04-14T21:51:53.440Z,78.77
2018-04-14T21:54:22.544Z,81.00
2018-04-14T21:56:51.691Z,78.57
2018-04-14T21:59:20.820Z,81.57
2018-04-14T22:01:49.963Z,77.17
2018-04-14T22:04:19.083Z,78.07
2018-04-14T22:06:48.204Z,76.80
2018-04-14T22:09:17.363Z,78.70
2018-04-14T22:11:46.485Z,79.70
2018-04-14T22:14:21.516Z,78.27
2018-04-14T22:16:50.631Z,77.97
2018-04-14T22:19:19.778Z,79.30
2018-04-14T22:21:48.922Z,79.37
2018-04-14T22:24:18.062Z,78.17
2018-04-14T22:26:47.384Z,78.50
2018-04-14T22:29:16.519Z,77.27
2018-04-14T22:31:45.631Z,76.70
2018-04-14T22:34:14.760Z,77.80
2018-04-14T22:36:43.900Z,77.70
2018-04-14T22:39:13.020Z,82.90
2018-04-14T22:41:42.162Z,82.77
2018-04-14T22:44:11.349Z,77.00
2018-04-14T22:46:40.472Z,79.10
2018-04-14T22:49:09.601Z,79.40
2018-04-14T22:51:38.738Z,79.07
2018-04-14T22:54:07.883Z,78.70
2018-04-14T22:56:36.992Z,79.27
2018-04-14T22:59:06.103Z,77.67
2018-04-14T23:01:35.229Z,77.40
2018-04-14T23:04:04.382Z,82.80
2018-04-14T23:06:33.521Z,77.67
2018-04-14T23:09:02.666Z,79.97
2018-04-14T23:11:31.810Z,79.03
2018-04-14T23:14:00.949Z,76.70
2018-04-14T23:16:30.116Z,80.23
2018-04-14T23:18:59.250Z,76.00
2018-04-14T23:21:28.360Z,79.40
2018-04-14T23:23:57.474Z,77.40
2018-04-14T23:26:26.589Z,77.20
2018-04-14T23:28:55.737Z,79.40
2018-04-14T23:31:24.868Z,77.73
2018-04-14T23:33:53.982Z,78.77
2018-04-14T23:36:23.375Z,77.40
2018-04-14T23:38:52.515Z,78.77
2018-04-14T23:41:21.672Z,78.33
2018-04-14T23:43:50.799Z,79.03
2018-04-14T23:46:19.928Z,80.57
2018-04-14T23:48:49.081Z,77.90
2018-04-14T23:51:18.252Z,76.90
2018-04-14T23:53:47.372Z,80.60
2018-04-14T23:56:16.487Z,79.17
2018-04-14T23:58:45.604Z,85.80
